Time;durP1;ratioP1;P1;durP2;ratioP2;P2;SDS_P1;SDS_P2;PMS_P1;PMS_P2;Temp;Humidity;BMP_temperature;BMP_pressure;BME280_temperature;BME280_humidity;BME280_pressure;Samples;Min_cycle;Max_cycle;Signal;HPM_P1;HPM_P2
2023/07/26 00:02:10;;;;;;;4.27;1.57;;;14.00;1.00;;;;;;5091650;28;20497;-70
2023/07/26 00:04:36;;;;;;;3.72;1.40;;;14.00;1.00;;;;;;5086352;28;20398;-71
2023/07/26 00:07:02;;;;;;;3.27;1.20;;;14.00;1.00;;;;;;5073398;28;20464;-71
2023/07/26 00:09:27;;;;;;;4.70;1.50;;;14.00;1.00;;;;;;5091215;28;20409;-71
2023/07/26 00:11:53;;;;;;;3.97;1.50;;;14.00;1.00;;;;;;5091056;28;20437;-71
2023/07/26 00:14:19;;;;;;;2.95;1.20;;;14.00;1.00;;;;;;5090808;28;20417;-71
2023/07/26 00:16:45;;;;;;;4.67;1.37;;;14.00;1.00;;;;;;5090816;28;20405;-71
2023/07/26 00:19:10;;;;;;;5.30;1.50;;;14.00;1.00;;;;;;5090585;28;20422;-71
2023/07/26 00:21:37;;;;;;;3.70;1.50;;;14.00;1.00;;;;;;5091226;28;20397;-71
2023/07/26 00:24:02;;;;;;;6.10;1.65;;;14.00;1.00;;;;;;5084590;28;20406;-72
2023/07/26 00:26:28;;;;;;;3.20;1.23;;;14.00;1.00;;;;;;5090778;28;20489;-71
2023/07/26 00:28:54;;;;;;;3.67;1.40;;;14.00;1.00;;;;;;5090734;28;20447;-71
2023/07/26 00:31:20;;;;;;;4.32;1.42;;;14.00;1.00;;;;;;5091002;28;20516;-71
2023/07/26 00:33:46;;;;;;;4.20;1.37;;;14.00;1.00;;;;;;5066281;28;20401;-71
2023/07/26 00:36:12;;;;;;;3.72;1.30;;;13.90;1.00;;;;;;5090979;28;20428;-71
2023/07/26 00:38:37;;;;;;;3.73;1.57;;;14.00;1.00;;;;;;5090702;28;20477;-71
2023/07/26 00:41:03;;;;;;;4.10;1.55;;;14.00;1.00;;;;;;5090490;28;20402;-69
2023/07/26 00:43:28;;;;;;;5.10;1.50;;;14.00;1.00;;;;;;5090071;28;20426;-69
2023/07/26 00:45:54;;;;;;;5.28;1.50;;;14.00;1.00;;;;;;5090689;28;21008;-70
2023/07/26 00:48:20;;;;;;;6.88;1.70;;;13.90;1.00;;;;;;5090205;28;20471;-70
2023/07/26 00:50:47;;;;;;;4.03;1.53;;;13.90;1.00;;;;;;5090461;28;21283;-70
2023/07/26 00:53:14;;;;;;;4.30;1.25;;;14.00;1.00;;;;;;5090411;28;20394;-70
2023/07/26 00:55:40;;;;;;;3.67;1.30;;;14.00;1.00;;;;;;5090578;28;20409;-70
2023/07/26 00:58:07;;;;;;;4.15;1.10;;;14.00;1.00;;;;;;5088720;28;20406;-70
2023/07/26 01:00:32;;;;;;;4.80;1.30;;;14.00;1.00;;;;;;5090426;28;20440;-70
2023/07/26 01:02:58;;;;;;;4.10;1.07;;;14.00;1.00;;;;;;5089030;28;20780;-70
2023/07/26 01:05:31;;;;;;;3.25;1.23;;;14.00;1.00;;;;;;5090026;28;20883;-70
2023/07/26 01:08:24;;;;;;;4.70;1.02;;;14.00;1.00;;;;;;5085629;28;20430;-70
2023/07/26 01:11:06;;;;;;;4.47;1.20;;;14.00;1.00;;;;;;5089880;28;20432;-70
2023/07/26 01:13:44;;;;;;;4.20;1.15;;;14.00;1.00;;;;;;5063149;28;20773;-70
2023/07/26 01:16:10;;;;;;;3.60;1.10;;;14.00;1.00;;;;;;5086744;28;20410;-70
2023/07/26 01:18:36;;;;;;;5.63;1.55;;;14.00;1.00;;;;;;5089248;28;20398;-70
2023/07/26 01:21:02;;;;;;;3.83;0.80;;;14.00;1.00;;;;;;5070717;28;20965;-70
2023/07/26 01:23:28;;;;;;;3.55;0.95;;;14.00;1.00;;;;;;5088545;28;20425;-70
2023/07/26 01:25:53;;;;;;;4.47;0.93;;;14.10;1.00;;;;;;5088432;28;20390;-70
2023/07/26 01:28:19;;;;;;;2.80;0.80;;;14.00;1.00;;;;;;5070611;28;20412;-71
2023/07/26 01:30:46;;;;;;;3.23;0.90;;;13.90;1.00;;;;;;5088650;28;20401;-71
2023/07/26 01:33:13;;;;;;;2.67;0.90;;;13.90;1.00;;;;;;5087978;28;20511;-71
2023/07/26 01:35:40;;;;;;;3.78;0.80;;;13.90;1.00;;;;;;5070149;28;20406;-70
2023/07/26 01:38:07;;;;;;;3.60;0.90;;;13.90;1.00;;;;;;5088268;28;20420;-71
2023/07/26 01:40:33;;;;;;;4.63;1.20;;;13.90;1.00;;;;;;5081746;28;20418;-71
2023/07/26 01:42:59;;;;;;;4.77;0.90;;;13.90;1.00;;;;;;5078873;28;20510;-71
2023/07/26 01:45:25;;;;;;;3.60;1.20;;;13.90;1.00;;;;;;5067673;28;20497;-71
2023/07/26 01:47:52;;;;;;;5.70;1.13;;;13.90;1.00;;;;;;5088136;28;20414;-71
2023/07/26 01:50:18;;;;;;;5.60;1.33;;;13.90;1.00;;;;;;5088136;28;20406;-71
2023/07/26 01:52:43;;;;;;;5.10;1.10;;;13.90;1.00;;;;;;5088561;28;20416;-71
2023/07/26 01:55:09;;;;;;;5.55;1.27;;;13.90;1.00;;;;;;5087968;28;20398;-71
2023/07/26 01:57:35;;;;;;;8.67;1.70;;;13.90;1.00;;;;;;5069838;28;20417;-71
2023/07/26 02:00:00;;;;;;;7.68;1.50;;;13.90;1.00;;;;;;5087415;28;20824;-71
2023/07/26 02:02:26;;;;;;;5.03;1.00;;;13.90;1.80;;;;;;5087651;28;20796;-71
2023/07/26 02:04:52;;;;;;;7.28;1.40;;;13.90;2.80;;;;;;5088303;28;20437;-71
2023/07/26 02:07:17;;;;;;;5.93;1.50;;;13.90;1.70;;;;;;5079227;28;21157;-71
2023/07/26 02:09:43;;;;;;;7.38;1.48;;;13.90;1.00;;;;;;5083063;28;20432;-71
2023/07/26 02:12:09;;;;;;;5.07;1.60;;;13.90;2.80;;;;;;5088112;28;20404;-71
2023/07/26 02:14:34;;;;;;;6.28;1.33;;;13.90;4.00;;;;;;5088227;28;21157;-71
2023/07/26 02:17:00;;;;;;;5.10;1.63;;;13.80;4.20;;;;;;5087096;28;20445;-71
2023/07/26 02:19:26;;;;;;;3.80;1.50;;;13.80;5.90;;;;;;5069828;28;20409;-71
2023/07/26 02:21:51;;;;;;;5.63;1.60;;;13.70;6.40;;;;;;5086784;28;20417;-71
2023/07/26 02:24:17;;;;;;;7.03;2.00;;;13.70;6.80;;;;;;5087997;28;20406;-71
2023/07/26 02:26:43;;;;;;;5.20;1.70;;;13.70;7.70;;;;;;5087495;28;20406;-71
2023/07/26 02:29:08;;;;;;;4.60;1.60;;;13.60;8.20;;;;;;5087727;28;20832;-71
2023/07/26 02:31:34;;;;;;;7.27;2.03;;;13.60;9.90;;;;;;5087441;28;20394;-71
2023/07/26 02:33:59;;;;;;;5.05;1.70;;;13.60;10.30;;;;;;5069708;28;20406;-71
2023/07/26 02:36:25;;;;;;;6.83;1.70;;;13.50;11.50;;;;;;5087050;28;20394;-71
2023/07/26 02:38:51;;;;;;;6.78;2.10;;;13.50;14.30;;;;;;5069311;28;20414;-71
2023/07/26 02:41:17;;;;;;;6.80;2.10;;;13.40;13.80;;;;;;5069059;28;20421;-71
2023/07/26 02:43:42;;;;;;;6.57;2.20;;;13.40;13.30;;;;;;5087407;28;20995;-71
2023/07/26 02:46:09;;;;;;;7.00;2.20;;;13.30;15.30;;;;;;5086876;28;20406;-71
2023/07/26 02:48:35;;;;;;;5.70;2.05;;;13.30;16.20;;;;;;5068790;28;20410;-71
2023/07/26 02:51:01;;;;;;;5.55;2.20;;;13.30;17.40;;;;;;5087388;28;20410;-71
2023/07/26 02:53:26;;;;;;;6.53;2.10;;;13.20;17.90;;;;;;5087752;28;20402;-71
2023/07/26 02:55:52;;;;;;;5.45;2.15;;;13.20;18.10;;;;;;5086966;28;20737;-71
2023/07/26 02:58:18;;;;;;;4.70;1.90;;;13.30;20.10;;;;;;5086843;28;20833;-71
2023/07/26 03:00:43;;;;;;;5.80;1.92;;;13.20;20.20;;;;;;5087001;28;20477;-71
2023/07/26 03:03:09;;;;;;;4.93;2.03;;;13.20;18.80;;;;;;5087368;28;20430;-71
2023/07/26 03:05:38;;;;;;;5.40;1.83;;;13.20;19.20;;;;;;5087084;28;20398;-71
2023/07/26 03:08:04;;;;;;;7.47;2.13;;;13.20;18.80;;;;;;5074657;28;20394;-71
2023/07/26 03:10:29;;;;;;;5.70;2.03;;;13.10;20.10;;;;;;5073553;28;20802;-71
2023/07/26 03:12:55;;;;;;;6.40;2.30;;;13.20;21.00;;;;;;5087157;28;20493;-71
2023/07/26 03:15:22;;;;;;;5.70;2.08;;;13.20;20.60;;;;;;5086889;28;20837;-71
2023/07/26 03:17:48;;;;;;;6.03;2.53;;;13.20;20.00;;;;;;5087463;28;20406;-71
2023/07/26 03:20:13;;;;;;;5.25;1.75;;;13.20;20.60;;;;;;5086499;28;20468;-71
2023/07/26 03:22:39;;;;;;;5.60;2.30;;;13.20;21.20;;;;;;5090397;28;21163;-71
2023/07/26 03:25:05;;;;;;;6.85;2.08;;;13.20;21.70;;;;;;5090305;28;20401;-70
2023/07/26 03:27:30;;;;;;;5.38;2.00;;;13.20;20.90;;;;;;5091666;28;20398;-70
2023/07/26 03:29:56;;;;;;;6.33;2.07;;;13.20;20.70;;;;;;5072069;28;20786;-70
2023/07/26 03:32:22;;;;;;;6.53;1.98;;;13.20;20.20;;;;;;5090960;28;20408;-70
2023/07/26 03:34:47;;;;;;;6.10;1.90;;;13.20;20.80;;;;;;5091026;28;20394;-70
2023/07/26 03:37:13;;;;;;;5.32;1.75;;;13.20;21.40;;;;;;5091365;28;20397;-70
2023/07/26 03:39:39;;;;;;;7.97;2.47;;;13.20;21.60;;;;;;5090073;28;20473;-70
2023/07/26 03:42:05;;;;;;;10.23;2.20;;;13.20;21.90;;;;;;5072622;28;20449;-70
2023/07/26 03:44:31;;;;;;;7.35;2.10;;;13.20;21.80;;;;;;5090598;28;20492;-70
2023/07/26 03:46:56;;;;;;;5.87;1.83;;;13.30;22.80;;;;;;5090664;28;20497;-70
2023/07/26 03:49:22;;;;;;;7.03;2.00;;;13.30;23.30;;;;;;5090591;28;20416;-71
2023/07/26 03:51:48;;;;;;;5.93;2.08;;;13.30;23.60;;;;;;5090987;28;20398;-70
2023/07/26 03:54:14;;;;;;;5.10;1.67;;;13.30;24.90;;;;;;5090364;28;20825;-70
2023/07/26 03:56:39;;;;;;;5.57;1.85;;;13.30;24.50;;;;;;5090799;28;20425;-70
2023/07/26 03:59:05;;;;;;;4.00;1.80;;;13.30;24.30;;;;;;5090511;28;20397;-70
2023/07/26 04:01:31;;;;;;;4.10;2.05;;;13.30;23.60;;;;;;5090639;28;21069;-70
2023/07/26 04:03:56;;;;;;;5.03;2.00;;;13.30;23.20;;;;;;5090590;28;20752;-70
2023/07/26 04:06:22;;;;;;;6.65;2.33;;;13.30;24.40;;;;;;5090334;28;20465;-70
2023/07/26 04:08:48;;;;;;;6.25;2.20;;;13.30;26.10;;;;;;5091296;28;20480;-70
2023/07/26 04:11:13;;;;;;;6.77;2.53;;;13.30;27.20;;;;;;5078020;28;20390;-70
2023/07/26 04:13:39;;;;;;;6.97;2.75;;;13.30;28.80;;;;;;5079518;28;20396;-70
2023/07/26 04:16:18;;;;;;;5.03;2.50;;;13.30;28.30;;;;;;5091069;28;20911;-70
2023/07/26 04:18:45;;;;;;;4.18;2.25;;;13.30;30.00;;;;;;5055247;28;20402;-70
2023/07/26 04:21:13;;;;;;;8.00;2.70;;;13.40;31.90;;;;;;5079879;28;20402;-71
2023/07/26 04:23:40;;;;;;;6.70;2.60;;;13.30;33.20;;;;;;5079408;28;20439;-71
2023/07/26 04:26:05;;;;;;;7.40;2.47;;;13.40;32.50;;;;;;5091095;28;20767;-71
2023/07/26 04:28:31;;;;;;;6.03;2.30;;;13.40;33.00;;;;;;5090149;28;20394;-71
2023/07/26 04:30:57;;;;;;;5.18;2.45;;;13.30;31.90;;;;;;5090539;28;20390;-71
2023/07/26 04:33:22;;;;;;;6.07;2.50;;;13.30;33.50;;;;;;5090405;28;20401;-71
2023/07/26 04:35:48;;;;;;;8.30;2.70;;;13.30;34.90;;;;;;5090849;28;20394;-71
2023/07/26 04:38:14;;;;;;;5.53;2.43;;;13.30;33.50;;;;;;5090724;28;20409;-71
2023/07/26 04:40:40;;;;;;;5.97;2.42;;;13.30;34.00;;;;;;5090969;28;20402;-71
2023/07/26 04:43:06;;;;;;;5.60;2.60;;;13.30;35.30;;;;;;5089368;28;20418;-71
2023/07/26 04:45:32;;;;;;;7.20;2.53;;;13.30;36.20;;;;;;5089791;28;20413;-71
2023/07/26 04:47:57;;;;;;;6.95;2.60;;;13.30;36.20;;;;;;5089827;28;20394;-71
2023/07/26 04:50:23;;;;;;;7.93;2.70;;;13.30;37.10;;;;;;5089248;28;20444;-71
2023/07/26 04:52:49;;;;;;;7.57;2.90;;;13.30;36.70;;;;;;5089180;28;20455;-71
2023/07/26 04:55:14;;;;;;;7.77;2.97;;;13.30;37.70;;;;;;5089476;28;20401;-71
2023/07/26 04:57:40;;;;;;;6.13;2.38;;;13.30;38.80;;;;;;5089212;28;20402;-71
2023/07/26 05:00:09;;;;;;;7.30;2.57;;;13.20;37.90;;;;;;5072115;28;20402;-71
2023/07/26 05:02:35;;;;;;;5.32;2.40;;;13.20;37.40;;;;;;5090022;28;20947;-71
2023/07/26 05:05:01;;;;;;;5.78;2.38;;;13.20;37.90;;;;;;5090058;28;20786;-71
2023/07/26 05:07:27;;;;;;;5.53;2.60;;;13.20;38.20;;;;;;5089913;28;20580;-71
2023/07/26 05:09:53;;;;;;;4.53;2.40;;;13.10;39.40;;;;;;5071607;28;20934;-71
2023/07/26 05:12:18;;;;;;;5.60;2.93;;;13.10;39.80;;;;;;5089714;28;20398;-71
2023/07/26 05:14:44;;;;;;;6.93;2.50;;;13.10;40.00;;;;;;5089923;28;20398;-71
2023/07/26 05:17:10;;;;;;;9.47;3.03;;;13.10;40.70;;;;;;5070956;28;20587;-71
2023/07/26 05:19:35;;;;;;;6.07;2.88;;;13.10;42.00;;;;;;5089849;28;20417;-71
2023/07/26 05:22:01;;;;;;;7.77;3.07;;;13.00;42.70;;;;;;5089030;28;20468;-71
2023/07/26 05:24:27;;;;;;;7.43;3.10;;;13.10;44.00;;;;;;5090183;28;20405;-71
2023/07/26 05:26:52;;;;;;;5.63;2.90;;;13.10;44.90;;;;;;5058377;28;20392;-71
2023/07/26 05:29:18;;;;;;;6.45;3.03;;;13.10;46.50;;;;;;5071732;28;20748;-71
2023/07/26 05:31:44;;;;;;;5.90;3.00;;;13.20;47.60;;;;;;5089373;28;20481;-71
2023/07/26 05:34:10;;;;;;;6.07;3.00;;;13.20;48.30;;;;;;5088435;28;20417;-71
2023/07/26 05:36:36;;;;;;;6.60;2.90;;;13.20;48.90;;;;;;5088993;28;20394;-71
2023/07/26 05:39:02;;;;;;;6.88;3.05;;;13.30;48.70;;;;;;5089085;28;20408;-71
2023/07/26 05:41:31;;;;;;;6.13;2.65;;;13.30;48.60;;;;;;5088855;28;20394;-71
2023/07/26 05:43:58;;;;;;;5.88;2.92;;;13.30;48.20;;;;;;5069714;28;20518;-70
2023/07/26 05:46:24;;;;;;;6.95;2.80;;;13.30;47.20;;;;;;5088473;28;20779;-70
2023/07/26 05:48:49;;;;;;;6.20;2.97;;;13.40;47.50;;;;;;5088585;28;20417;-69
2023/07/26 05:51:15;;;;;;;5.53;3.13;;;13.50;49.40;;;;;;5088327;28;20406;-70
2023/07/26 05:53:41;;;;;;;5.87;2.87;;;13.60;51.90;;;;;;5079980;28;20468;-71
2023/07/26 05:56:07;;;;;;;6.07;2.78;;;13.80;52.70;;;;;;5087593;28;20903;-70
2023/07/26 05:58:33;;;;;;;6.30;2.70;;;13.90;51.60;;;;;;5089358;28;20797;-71
2023/07/26 06:00:58;;;;;;;6.43;3.03;;;14.00;48.10;;;;;;5069695;28;20398;-71
2023/07/26 06:03:24;;;;;;;6.32;3.25;;;14.20;44.70;;;;;;5079616;28;20507;-71
2023/07/26 06:05:50;;;;;;;6.67;2.87;;;14.30;42.00;;;;;;5084175;28;20899;-71
2023/07/26 06:08:16;;;;;;;5.85;3.22;;;14.30;39.10;;;;;;5089375;28;20398;-71
2023/07/26 06:10:41;;;;;;;6.33;3.23;;;14.40;38.40;;;;;;5070503;28;20406;-71
2023/07/26 06:13:12;;;;;;;6.65;3.30;;;14.40;39.40;;;;;;5088999;28;20426;-71
2023/07/26 06:15:39;;;;;;;6.53;3.47;;;14.50;40.30;;;;;;5088788;28;20437;-71
2023/07/26 06:18:05;;;;;;;6.53;3.30;;;14.50;40.90;;;;;;5088814;28;20401;-71
2023/07/26 06:20:30;;;;;;;7.25;3.30;;;14.60;40.20;;;;;;5089130;28;20894;-71
2023/07/26 06:22:56;;;;;;;8.30;3.83;;;14.60;40.70;;;;;;5088498;28;20779;-71
2023/07/26 06:25:22;;;;;;;6.15;3.50;;;14.70;42.70;;;;;;5088366;28;20903;-71
2023/07/26 06:27:47;;;;;;;7.03;3.60;;;14.80;45.50;;;;;;5089066;28;20395;-71
2023/07/26 06:30:15;;;;;;;6.00;2.90;;;14.90;46.80;;;;;;5069859;28;20992;-71
2023/07/26 06:32:41;;;;;;;7.38;3.30;;;15.00;46.80;;;;;;5088746;28;20407;-71
2023/07/26 06:35:08;;;;;;;6.78;2.65;;;15.00;44.40;;;;;;5088095;28;20402;-71
2023/07/26 06:37:35;;;;;;;6.50;2.55;;;14.90;40.90;;;;;;5070307;28;20402;-71
2023/07/26 06:40:01;;;;;;;6.40;2.72;;;14.80;39.50;;;;;;5088284;28;20402;-71
2023/07/26 06:42:26;;;;;;;5.13;2.20;;;14.60;38.50;;;;;;5070430;28;20433;-71
2023/07/26 06:44:52;;;;;;;6.93;2.40;;;14.50;37.70;;;;;;5087964;28;20428;-71
2023/07/26 06:47:18;;;;;;;5.60;2.30;;;14.30;37.90;;;;;;5088154;28;20441;-71
2023/07/26 06:49:44;;;;;;;9.23;2.70;;;14.20;41.70;;;;;;5088313;28;20406;-71
2023/07/26 06:52:10;;;;;;;8.15;3.17;;;14.10;45.00;;;;;;5088495;28;21114;-71
2023/07/26 06:54:38;;;;;;;7.95;3.08;;;14.00;49.60;;;;;;5088308;28;20761;-71
2023/07/26 06:57:04;;;;;;;7.90;3.05;;;14.00;52.20;;;;;;5087388;28;20425;-71
2023/07/26 06:59:30;;;;;;;8.48;3.15;;;13.90;52.90;;;;;;5087919;28;20401;-71
2023/07/26 07:01:56;;;;;;;8.60;2.90;;;13.90;55.30;;;;;;5077945;28;20416;-70
2023/07/26 07:04:21;;;;;;;6.53;3.00;;;13.90;57.40;;;;;;5085524;28;20402;-71
2023/07/26 07:06:47;;;;;;;7.60;3.20;;;13.90;58.60;;;;;;5087943;28;20962;-71
2023/07/26 07:09:13;;;;;;;7.07;3.30;;;13.90;59.20;;;;;;5087490;28;20406;-71
2023/07/26 07:11:39;;;;;;;5.72;3.10;;;14.00;61.70;;;;;;5088480;28;20433;-71
2023/07/26 07:14:04;;;;;;;6.78;3.40;;;14.10;63.00;;;;;;5087607;28;20422;-71
2023/07/26 07:16:30;;;;;;;6.23;2.67;;;14.20;64.00;;;;;;5088117;28;20494;-71
2023/07/26 07:18:56;;;;;;;6.47;2.88;;;14.30;64.40;;;;;;5087578;28;20398;-71
2023/07/26 07:21:21;;;;;;;6.63;3.30;;;14.40;66.90;;;;;;5087917;28;20477;-71
2023/07/26 07:23:47;;;;;;;6.80;2.92;;;14.60;67.80;;;;;;5087345;28;20765;-72
2023/07/26 07:26:13;;;;;;;8.38;3.10;;;14.70;65.70;;;;;;5087849;28;20413;-71
2023/07/26 07:28:39;;;;;;;5.07;2.42;;;14.90;67.60;;;;;;5087761;28;20481;-72
2023/07/26 07:31:06;;;;;;;5.53;2.40;;;15.10;69.80;;;;;;5069813;28;20828;-71
2023/07/26 07:33:32;;;;;;;6.13;2.50;;;15.20;65.40;;;;;;5087395;28;21158;-71
2023/07/26 07:35:57;;;;;;;5.45;2.33;;;15.30;58.30;;;;;;5087370;28;20402;-71
2023/07/26 07:38:23;;;;;;;4.43;2.10;;;15.30;57.50;;;;;;5087192;28;20390;-71
2023/07/26 07:40:49;;;;;;;5.28;1.90;;;15.40;50.90;;;;;;5088080;28;20405;-72
2023/07/26 07:43:15;;;;;;;3.53;1.90;;;15.40;46.80;;;;;;5087711;28;20444;-71
2023/07/26 07:45:41;;;;;;;3.50;1.37;;;15.30;44.60;;;;;;5087321;28;20492;-72
2023/07/26 07:48:08;;;;;;;2.33;1.40;;;15.30;39.50;;;;;;5069146;28;20899;-71
2023/07/26 07:50:34;;;;;;;2.92;1.40;;;15.40;35.80;;;;;;5088041;28;20733;-71
2023/07/26 07:53:00;;;;;;;3.58;1.20;;;15.50;29.70;;;;;;5069541;28;20421;-71
2023/07/26 07:55:26;;;;;;;3.55;1.48;;;15.40;17.70;;;;;;5088016;28;20428;-71
2023/07/26 07:57:52;;;;;;;2.47;1.27;;;15.40;18.70;;;;;;5087046;28;20469;-71
2023/07/26 08:00:17;;;;;;;3.67;1.33;;;15.50;20.10;;;;;;5087783;28;20482;-71
2023/07/26 08:02:43;;;;;;;3.00;1.30;;;15.60;26.70;;;;;;5087664;28;21384;-71
2023/07/26 08:05:10;;;;;;;2.03;0.80;;;15.60;24.60;;;;;;5087883;28;20402;-71
2023/07/26 08:07:35;;;;;;;2.80;1.33;;;15.80;10.60;;;;;;5070244;28;20897;-71
2023/07/26 08:10:01;;;;;;;2.30;1.10;;;15.80;8.20;;;;;;5091084;28;20402;-71
2023/07/26 08:12:27;;;;;;;2.90;0.95;;;15.90;9.10;;;;;;5090674;28;20394;-71
2023/07/26 08:14:52;;;;;;;3.50;1.30;;;15.90;3.70;;;;;;5091346;28;20481;-71
2023/07/26 08:17:18;;;;;;;2.45;1.20;;;15.80;1.00;;;;;;5090772;28;20402;-71
2023/07/26 08:19:46;;;;;;;2.63;1.00;;;15.80;1.30;;;;;;5091474;28;20416;-71
2023/07/26 08:22:12;;;;;;;2.92;1.08;;;15.90;1.00;;;;;;5086624;28;20634;-71
2023/07/26 08:24:37;;;;;;;2.73;1.20;;;16.10;4.40;;;;;;5063778;28;20398;-71
2023/07/26 08:27:06;;;;;;;1.90;1.00;;;16.20;1.00;;;;;;5090460;28;20389;-71
2023/07/26 08:29:32;;;;;;;1.88;1.00;;;16.30;1.00;;;;;;5073140;28;20414;-71
2023/07/26 08:31:57;;;;;;;2.87;1.13;;;16.40;1.00;;;;;;5072289;28;20432;-71
2023/07/26 08:34:23;;;;;;;2.50;1.00;;;16.60;1.00;;;;;;5090500;28;20410;-71
2023/07/26 08:36:49;;;;;;;1.83;0.70;;;16.70;1.00;;;;;;5072793;28;20480;-71
2023/07/26 08:39:14;;;;;;;3.08;0.98;;;16.80;1.00;;;;;;5090797;28;20394;-71
2023/07/26 08:41:41;;;;;;;1.73;0.80;;;16.80;1.00;;;;;;5090357;28;20942;-71
2023/07/26 08:44:08;;;;;;;1.33;0.50;;;16.80;1.00;;;;;;5090651;28;20831;-71
2023/07/26 08:46:39;;;;;;;2.20;0.70;;;16.70;1.00;;;;;;5059748;28;20394;-70
2023/07/26 08:49:05;;;;;;;1.67;0.40;;;16.80;1.00;;;;;;5090017;28;20470;-71
2023/07/26 08:51:32;;;;;;;1.33;0.60;;;16.80;1.00;;;;;;5090135;28;20405;-71
2023/07/26 08:53:58;;;;;;;1.05;0.40;;;16.90;1.00;;;;;;5090428;28;20399;-71
2023/07/26 08:56:27;;;;;;;2.38;0.55;;;17.00;1.00;;;;;;5089700;28;20394;-71
2023/07/26 08:58:52;;;;;;;1.13;0.50;;;17.00;1.00;;;;;;5072431;28;20471;-71
2023/07/26 09:01:19;;;;;;;1.23;0.70;;;17.20;1.00;;;;;;5090637;28;20455;-71
2023/07/26 09:03:45;;;;;;;1.35;0.70;;;17.20;1.00;;;;;;5090125;28;20469;-71
2023/07/26 09:06:10;;;;;;;2.58;1.10;;;17.30;1.00;;;;;;5089656;28;20433;-71
2023/07/26 09:08:36;;;;;;;1.73;0.70;;;17.40;1.00;;;;;;5090838;28;20405;-71
2023/07/26 09:11:25;;;;;;;2.58;0.80;;;17.40;1.00;;;;;;5076754;28;20397;-71
2023/07/26 09:13:55;;;;;;;1.80;0.90;;;17.50;1.00;;;;;;5071294;28;20410;-71
2023/07/26 09:16:21;;;;;;;3.20;0.80;;;17.60;1.00;;;;;;5089885;28;20401;-71
2023/07/26 09:19:05;;;;;;;3.20;0.70;;;17.60;1.00;;;;;;5075657;28;20924;-71
2023/07/26 09:21:33;;;;;;;2.13;0.85;;;17.80;1.00;;;;;;5089760;28;20409;-71
2023/07/26 09:23:59;;;;;;;2.88;0.90;;;18.00;1.00;;;;;;5089748;28;20941;-71
2023/07/26 09:26:38;;;;;;;1.55;0.77;;;18.20;99.90;;;;;;5071788;28;20453;-71
2023/07/26 09:29:12;;;;;;;2.40;0.68;;;18.20;99.90;;;;;;5071260;28;20425;-71
2023/07/26 09:31:41;;;;;;;2.17;0.77;;;18.30;99.90;;;;;;5088883;28;20409;-71
2023/07/26 09:34:08;;;;;;;2.25;1.00;;;18.20;99.90;;;;;;5078277;28;20465;-71
2023/07/26 09:36:51;;;;;;;2.88;1.00;;;18.10;99.90;;;;;;5071167;28;20497;-71
2023/07/26 09:39:25;;;;;;;2.80;0.90;;;18.10;99.90;;;;;;5079961;28;20407;-71
2023/07/26 09:42:06;;;;;;;3.90;1.00;;;18.10;99.90;;;;;;5087862;28;20489;-71
2023/07/26 09:44:33;;;;;;;2.35;1.40;;;18.40;99.90;;;;;;5088712;28;20471;-71
2023/07/26 09:46:58;;;;;;;2.67;1.08;;;18.50;99.90;;;;;;5089600;28;20729;-71
2023/07/26 09:49:29;;;;;;;3.17;1.30;;;18.50;99.90;;;;;;5089424;28;20402;-71
2023/07/26 09:51:58;;;;;;;2.78;1.20;;;18.60;99.90;;;;;;5089724;28;20443;-71
2023/07/26 09:54:31;;;;;;;2.78;1.20;;;18.60;99.90;;;;;;5089009;28;20487;-71
2023/07/26 09:56:58;;;;;;;2.08;1.00;;;18.80;99.90;;;;;;5089472;28;20906;-71
2023/07/26 09:59:26;;;;;;;2.97;1.10;;;19.10;99.90;;;;;;5089161;28;20798;-71
2023/07/26 10:01:55;;;;;;;2.03;1.10;;;19.40;99.90;;;;;;5089295;28;20390;-71
2023/07/26 10:04:48;;;;;;;2.40;1.40;;;19.80;99.90;;;;;;5089197;28;20394;-71
2023/07/26 10:07:14;;;;;;;4.97;1.50;;;19.90;1.00;;;;;;5088819;28;20807;-71
2023/07/26 10:09:43;;;;;;;4.40;1.35;;;19.80;99.90;;;;;;5089338;28;20884;-71
2023/07/26 10:12:09;;;;;;;2.33;1.00;;;19.90;99.90;;;;;;5088621;28;20402;-71
2023/07/26 10:14:36;;;;;;;3.20;1.20;;;20.20;99.90;;;;;;5089433;28;20394;-71
2023/07/26 10:17:03;;;;;;;3.50;1.10;;;20.60;99.90;;;;;;5088485;28;20501;-71
2023/07/26 10:19:31;;;;;;;2.38;1.10;;;21.00;92.40;;;;;;5088951;28;20409;-72
2023/07/26 10:21:57;;;;;;;2.58;1.20;;;21.20;99.90;;;;;;5070348;28;20403;-71
2023/07/26 10:24:25;;;;;;;2.55;1.15;;;21.20;1.00;;;;;;5088881;28;20402;-71
2023/07/26 10:26:54;;;;;;;2.42;1.13;;;21.30;99.90;;;;;;5088115;28;20476;-72
2023/07/26 10:29:20;;;;;;;3.00;1.08;;;21.40;99.90;;;;;;5089019;28;20413;-72
2023/07/26 10:31:47;;;;;;;1.97;0.83;;;21.80;1.00;;;;;;5088538;28;20390;-72
2023/07/26 10:34:20;;;;;;;3.33;1.20;;;22.30;99.90;;;;;;5088830;28;20398;-72
2023/07/26 10:36:46;;;;;;;2.70;1.13;;;22.50;99.90;;;;;;5070289;28;20402;-71
2023/07/26 10:39:14;;;;;;;3.03;1.10;;;22.30;99.90;;;;;;5088331;28;20398;-71
2023/07/26 10:41:50;;;;;;;3.03;1.05;;;22.20;99.90;;;;;;5087822;28;20398;-71
2023/07/26 10:44:16;;;;;;;3.58;1.05;;;22.00;99.90;;;;;;5088465;28;20441;-71
2023/07/26 10:47:03;;;;;;;2.30;1.30;;;21.60;1.00;;;;;;5088056;28;20433;-71
2023/07/26 10:49:30;;;;;;;3.50;1.20;;;21.10;99.90;;;;;;5088366;28;20495;-71
2023/07/26 10:52:01;;;;;;;1.90;1.00;;;20.70;99.90;;;;;;5088510;28;20399;-71
2023/07/26 10:54:46;;;;;;;3.90;1.15;;;20.20;99.90;;;;;;5088107;28;20402;-72
2023/07/26 10:57:20;;;;;;;4.77;1.60;;;19.60;1.00;;;;;;5088281;28;20402;-71
2023/07/26 11:00:06;;;;;;;4.30;1.60;;;18.80;99.90;;;;;;5088241;28;20413;-72
2023/07/26 11:02:45;;;;;;;4.60;1.33;;;18.10;61.60;;;;;;5069947;28;20952;-72
2023/07/26 11:05:13;;;;;;;3.85;1.45;;;17.50;99.90;;;;;;5088224;28;20768;-71
2023/07/26 11:07:55;;;;;;;3.85;1.70;;;17.10;66.40;;;;;;5070091;28;20418;-73
2023/07/26 11:10:31;;;;;;;4.00;1.80;;;16.70;99.90;;;;;;5087522;28;20420;-72
2023/07/26 11:13:12;;;;;;;3.40;1.70;;;16.40;99.90;;;;;;5075939;28;20402;-72
2023/07/26 11:15:41;;;;;;;5.10;1.88;;;16.20;99.90;;;;;;5088046;28;20408;-72
2023/07/26 11:18:09;;;;;;;3.90;1.97;;;16.10;1.00;;;;;;5069616;28;20410;-72
2023/07/26 11:20:39;;;;;;;5.45;2.15;;;16.10;1.00;;;;;;5069741;28;20485;-71
2023/07/26 11:23:21;;;;;;;4.80;2.28;;;16.20;1.00;;;;;;5087845;28;20469;-71
2023/07/26 11:25:49;;;;;;;5.85;2.53;;;16.30;1.00;;;;;;5087791;28;20437;-71
2023/07/26 11:28:16;;;;;;;5.00;2.40;;;16.40;1.00;;;;;;5087534;28;20408;-71
2023/07/26 11:30:49;;;;;;;8.50;2.50;;;16.50;1.00;;;;;;5088278;28;20405;-71
2023/07/26 11:33:36;;;;;;;4.63;2.70;;;16.50;1.00;;;;;;5087435;28;20454;-71
2023/07/26 11:36:04;;;;;;;5.68;2.55;;;16.60;1.00;;;;;;5069977;28;21242;-71
2023/07/26 11:38:30;;;;;;;4.38;2.38;;;16.80;1.00;;;;;;5069222;28;20473;-72
2023/07/26 11:40:56;;;;;;;4.15;2.20;;;17.30;1.00;;;;;;5087130;28;20472;-72
2023/07/26 11:43:25;;;;;;;4.18;1.90;;;17.80;1.00;;;;;;5089748;28;20447;-72
2023/07/26 11:45:52;;;;;;;4.65;1.80;;;18.30;1.00;;;;;;5091779;28;20409;-72
2023/07/26 11:48:18;;;;;;;5.53;2.03;;;18.60;1.00;;;;;;5091602;28;20477;-72
2023/07/26 11:50:44;;;;;;;4.28;2.00;;;18.90;1.00;;;;;;5091561;28;20397;-72
2023/07/26 11:53:12;;;;;;;4.30;1.65;;;19.30;1.00;;;;;;5091287;28;20396;-72
2023/07/26 11:55:40;;;;;;;2.70;1.40;;;19.70;1.00;;;;;;5091542;28;20398;-72
2023/07/26 11:58:10;;;;;;;3.20;1.40;;;20.10;1.00;;;;;;5091007;28;20433;-72
2023/07/26 12:00:38;;;;;;;2.43;1.33;;;20.60;1.00;;;;;;5090911;28;20402;-72
2023/07/26 12:03:05;;;;;;;2.55;1.20;;;20.90;99.90;;;;;;5091244;28;20418;-73
2023/07/26 12:05:32;;;;;;;2.65;1.27;;;21.10;99.90;;;;;;5091772;28;20402;-71
2023/07/26 12:08:05;;;;;;;3.67;1.40;;;21.30;99.90;;;;;;5091021;28;20794;-71
2023/07/26 12:10:39;;;;;;;2.67;1.30;;;21.30;99.90;;;;;;5077572;28;20485;-71
2023/07/26 12:13:20;;;;;;;2.30;1.00;;;21.40;99.90;;;;;;5091315;28;20402;-71
2023/07/26 12:15:58;;;;;;;2.83;1.23;;;21.60;99.90;;;;;;5090726;28;20398;-71
2023/07/26 12:18:25;;;;;;;4.03;1.50;;;21.70;72.70;;;;;;5091182;28;20474;-72
2023/07/26 12:21:22;;;;;;;2.63;1.17;;;21.60;1.00;;;;;;5078883;28;20478;-72
2023/07/26 12:23:51;;;;;;;2.58;0.90;;;21.50;1.00;;;;;;5089968;28;20438;-72
2023/07/26 12:26:19;;;;;;;2.15;0.60;;;21.70;99.90;;;;;;5072273;28;20411;-70
2023/07/26 12:28:45;;;;;;;1.90;0.60;;;21.80;49.40;;;;;;5073012;28;20487;-71
2023/07/26 12:31:22;;;;;;;3.92;0.57;;;22.00;99.90;;;;;;5080786;28;20458;-71
2023/07/26 12:33:54;;;;;;;2.47;0.50;;;22.40;99.90;;;;;;5072375;28;20406;-71
2023/07/26 12:36:21;;;;;;;3.35;0.40;;;22.60;99.90;;;;;;5056422;28;20772;-71
2023/07/26 12:38:47;;;;;;;3.80;0.70;;;22.60;99.90;;;;;;5072118;28;21079;-71
2023/07/26 12:41:13;;;;;;;2.80;0.57;;;22.80;99.90;;;;;;5090315;28;20401;-71
2023/07/26 12:43:39;;;;;;;3.33;0.60;;;22.90;1.00;;;;;;5090288;28;20586;-71
2023/07/26 12:46:05;;;;;;;2.50;0.50;;;23.00;99.90;;;;;;5077937;28;20789;-71
2023/07/26 12:48:34;;;;;;;2.20;0.40;;;23.00;99.90;;;;;;5089804;28;20398;-71
2023/07/26 12:51:00;;;;;;;2.00;0.60;;;23.20;99.90;;;;;;5090351;28;20441;-71
2023/07/26 12:53:26;;;;;;;3.55;0.77;;;23.40;99.90;;;;;;5076857;28;20897;-71